createdAt,value
2023-06-04T00:00:58.898Z,3.55
2023-06-04T00:02:01.046Z,3.38
2023-06-04T00:03:03.209Z,3.78
2023-06-04T00:04:05.374Z,3.45
2023-06-04T00:05:07.774Z,3.42
2023-06-04T00:06:09.813Z,3.55
2023-06-04T00:07:11.801Z,3.78
2023-06-04T00:08:13.715Z,3.63
2023-06-04T00:09:16.076Z,3.47
2023-06-04T00:10:17.958Z,4.00
2023-06-04T00:11:21.145Z,3.42
2023-06-04T00:12:23.241Z,3.78
2023-06-04T00:13:25.206Z,3.60
2023-06-04T00:14:27.259Z,3.88
2023-06-04T00:15:29.240Z,3.30
2023-06-04T00:16:31.216Z,3.50
2023-06-04T00:17:34.076Z,3.45
2023-06-04T00:18:36.046Z,3.85
2023-06-04T00:19:41.608Z,3.50
2023-06-04T00:20:43.796Z,3.65
2023-06-04T00:21:46.658Z,4.00
2023-06-04T00:22:48.757Z,3.25
2023-06-04T00:23:50.785Z,3.05
2023-06-04T00:24:52.743Z,3.30
2023-06-04T00:25:54.812Z,3.45
2023-06-04T00:26:56.713Z,3.72
2023-06-04T00:27:58.833Z,3.47
2023-06-04T00:29:02.260Z,3.33
2023-06-04T00:30:05.587Z,3.58
2023-06-04T00:31:08.210Z,3.00
2023-06-04T00:32:10.850Z,3.08
2023-06-04T00:33:12.793Z,3.28
2023-06-04T00:34:14.824Z,3.05
2023-06-04T00:35:16.860Z,4.35
2023-06-04T00:36:19.045Z,7.20
2023-06-04T00:37:21.575Z,3.75
2023-06-04T00:38:23.715Z,3.85
2023-06-04T00:39:25.737Z,3.72
2023-06-04T00:41:52.208Z,2.88
2023-06-04T00:42:54.270Z,3.08
2023-06-04T00:43:59.271Z,3.58
2023-06-04T00:45:01.472Z,3.15
2023-06-04T00:46:06.975Z,3.28
2023-06-04T00:47:09.244Z,2.85
2023-06-04T00:48:11.735Z,3.85
2023-06-04T00:49:14.162Z,3.25
2023-06-04T00:50:16.270Z,4.07
2023-06-04T00:51:18.582Z,3.33
2023-06-04T00:52:20.803Z,3.70
2023-06-04T00:53:25.009Z,3.33
2023-06-04T00:54:27.064Z,4.03
2023-06-04T00:55:29.582Z,3.60
2023-06-04T00:56:31.557Z,3.53
2023-06-04T00:57:33.759Z,3.67
2023-06-04T00:58:44.348Z,3.25
2023-06-04T00:59:46.558Z,3.33
2023-06-04T01:00:49.250Z,3.35
2023-06-04T01:01:58.486Z,3.95
2023-06-04T01:03:07.402Z,3.42
2023-06-04T01:04:37.592Z,3.78
2023-06-04T01:05:47.142Z,3.28
2023-06-04T01:06:55.059Z,3.47
2023-06-04T01:07:59.148Z,3.17
2023-06-04T01:09:02.318Z,3.42
2023-06-04T01:10:05.007Z,3.42
2023-06-04T01:11:07.298Z,4.00
2023-06-04T01:12:10.042Z,3.47
2023-06-04T01:13:12.252Z,3.22
2023-06-04T01:14:14.361Z,2.75
2023-06-04T01:15:16.518Z,3.30
2023-06-04T01:16:18.637Z,3.25
2023-06-04T01:17:38.373Z,3.45
2023-06-04T01:18:41.476Z,3.30
2023-06-04T01:20:15.303Z,3.40
2023-06-04T01:21:19.758Z,2.78
2023-06-04T01:22:33.832Z,3.50
2023-06-04T01:23:59.837Z,3.30
2023-06-04T01:25:10.933Z,3.63
2023-06-04T01:26:13.438Z,3.83
2023-06-04T01:27:17.058Z,3.42
2023-06-04T01:28:22.491Z,3.22
2023-06-04T01:29:25.117Z,4.95
2023-06-04T01:30:31.513Z,3.70
2023-06-04T01:31:34.330Z,3.40
2023-06-04T01:32:37.431Z,3.55
2023-06-04T01:33:39.912Z,3.17
2023-06-04T01:34:46.561Z,3.25
2023-06-04T01:35:48.732Z,3.47
2023-06-04T01:36:50.798Z,3.42
2023-06-04T01:37:53.093Z,3.30
2023-06-04T01:38:55.130Z,3.50
2023-06-04T01:39:57.288Z,4.00
2023-06-04T01:41:02.878Z,3.55
2023-06-04T01:42:05.730Z,3.40
2023-06-04T01:43:08.261Z,3.42
2023-06-04T01:44:10.567Z,3.85
2023-06-04T01:45:12.600Z,3.38
2023-06-04T01:46:14.713Z,3.22
2023-06-04T01:47:16.892Z,3.33
2023-06-04T01:48:19.063Z,3.75
2023-06-04T01:49:21.215Z,3.20
2023-06-04T01:50:24.080Z,3.70
2023-06-04T01:51:26.225Z,3.47
2023-06-04T01:52:28.418Z,4.00
2023-06-04T01:53:31.483Z,3.55
2023-06-04T01:54:35.131Z,3.90
2023-06-04T01:55:39.143Z,3.80
2023-06-04T01:56:41.598Z,3.70
2023-06-04T01:57:45.414Z,3.60
2023-06-04T01:58:47.608Z,3.67
2023-06-04T01:59:50.320Z,2.95
2023-06-04T02:00:54.170Z,3.85
2023-06-04T02:02:59.321Z,3.65
2023-06-04T02:04:01.765Z,3.65
2023-06-04T02:05:08.864Z,3.20
2023-06-04T02:06:11.790Z,3.50
2023-06-04T02:07:18.943Z,3.72
2023-06-04T02:08:21.466Z,3.53
2023-06-04T02:09:23.460Z,3.67
2023-06-04T02:10:25.968Z,3.45
2023-06-04T02:11:28.096Z,3.13
2023-06-04T02:12:30.269Z,3.53
2023-06-04T02:13:32.299Z,13.93
2023-06-04T02:14:34.520Z,5.22
2023-06-04T02:15:36.641Z,10.75
2023-06-04T02:16:39.267Z,11.05
2023-06-04T02:17:44.060Z,3.67
2023-06-04T02:18:46.638Z,3.85
2023-06-04T02:19:51.252Z,3.58
2023-06-04T02:20:53.698Z,4.88
2023-06-04T02:21:55.876Z,3.70
2023-06-04T02:22:58.038Z,3.50
2023-06-04T02:24:00.171Z,3.42
2023-06-04T02:25:02.483Z,3.33
2023-06-04T02:26:04.637Z,3.80
2023-06-04T02:27:07.741Z,3.78
2023-06-04T02:28:09.752Z,3.45
2023-06-04T02:29:11.884Z,3.50
2023-06-04T02:30:13.970Z,3.80
2023-06-04T02:31:16.541Z,3.90
2023-06-04T02:32:19.104Z,3.90
2023-06-04T02:33:21.930Z,3.38
2023-06-04T02:34:24.646Z,3.22
2023-06-04T02:35:26.721Z,3.30
2023-06-04T02:36:30.177Z,3.55
2023-06-04T02:38:34.706Z,3.08
2023-06-04T02:39:36.874Z,3.20
2023-06-04T02:40:39.816Z,3.40
2023-06-04T02:41:42.096Z,3.35
2023-06-04T02:42:44.095Z,3.42
2023-06-04T02:43:46.235Z,3.22
2023-06-04T02:44:48.177Z,3.53
2023-06-04T02:45:50.327Z,3.38
2023-06-04T02:46:52.454Z,3.55
2023-06-04T02:47:54.567Z,3.25
2023-06-04T02:48:56.573Z,2.88
2023-06-04T02:49:58.583Z,3.20
2023-06-04T02:51:01.242Z,3.67
2023-06-04T02:52:03.461Z,2.67
2023-06-04T02:53:05.957Z,2.60
2023-06-04T02:54:08.211Z,3.08
2023-06-04T02:55:10.579Z,3.50
2023-06-04T02:56:13.308Z,4.28
2023-06-04T02:57:15.267Z,3.35
2023-06-04T02:58:17.766Z,3.35
2023-06-04T02:59:20.275Z,3.17
2023-06-04T03:00:22.545Z,3.55
2023-06-04T03:01:25.842Z,3.25
2023-06-04T03:02:29.060Z,3.42
2023-06-04T03:03:32.814Z,3.35
2023-06-04T03:04:37.532Z,3.90
2023-06-04T03:05:40.875Z,3.33
2023-06-04T03:07:49.772Z,3.47
2023-06-04T03:08:52.720Z,3.47
2023-06-04T03:09:54.714Z,3.22
2023-06-04T03:10:56.772Z,3.67
2023-06-04T03:12:02.793Z,3.05
2023-06-04T03:13:05.313Z,3.60
2023-06-04T03:14:07.257Z,3.17
2023-06-04T03:15:11.249Z,3.30
2023-06-04T03:16:13.523Z,3.22
2023-06-04T03:17:16.344Z,2.92
2023-06-04T03:18:18.372Z,3.70
2023-06-04T03:19:20.591Z,3.17
2023-06-04T03:20:25.434Z,3.13
2023-06-04T03:21:30.218Z,3.25
2023-06-04T03:22:32.547Z,3.30
2023-06-04T03:23:36.035Z,3.38
2023-06-04T03:24:40.569Z,3.15
2023-06-04T03:25:42.735Z,3.42
2023-06-04T03:26:44.725Z,2.92
2023-06-04T03:27:46.802Z,3.20
2023-06-04T03:28:48.878Z,3.30
2023-06-04T03:29:51.223Z,3.35
2023-06-04T03:30:53.318Z,3.08
2023-06-04T03:31:55.635Z,3.17
2023-06-04T03:32:57.717Z,2.78
2023-06-04T03:34:00.040Z,3.08
2023-06-04T03:35:02.752Z,3.33
2023-06-04T03:36:06.977Z,3.22
2023-06-04T03:37:08.948Z,3.47
2023-06-04T03:38:11.400Z,3.00
2023-06-04T03:39:13.349Z,3.55
2023-06-04T03:40:15.481Z,3.10
2023-06-04T03:41:17.602Z,2.78
2023-06-04T03:42:20.094Z,3.03
2023-06-04T03:43:22.953Z,3.22
2023-06-04T03:44:25.251Z,3.40
2023-06-04T03:45:27.956Z,3.60
2023-06-04T03:46:34.783Z,3.28
2023-06-04T03:47:37.144Z,3.25
2023-06-04T03:48:39.407Z,3.33
2023-06-04T03:49:42.031Z,3.30
2023-06-04T03:50:45.272Z,2.75
2023-06-04T03:51:47.304Z,3.35
2023-06-04T03:52:50.805Z,3.47
2023-06-04T03:53:52.884Z,3.08
2023-06-04T03:54:55.154Z,3.65
2023-06-04T03:55:57.254Z,3.60
2023-06-04T03:56:59.297Z,3.90
2023-06-04T03:58:01.429Z,4.00
2023-06-04T03:59:03.945Z,3.22
2023-06-04T04:00:14.420Z,3.20
2023-06-04T04:01:16.802Z,3.30
2023-06-04T04:02:19.505Z,3.35
2023-06-04T04:03:23.160Z,3.00
2023-06-04T04:05:27.334Z,3.00
2023-06-04T04:06:29.431Z,3.40
2023-06-04T04:07:31.400Z,3.22
2023-06-04T04:08:33.508Z,3.30
2023-06-04T04:09:36.006Z,3.00
2023-06-04T04:10:38.199Z,3.35
2023-06-04T04:11:40.192Z,3.47
2023-06-04T04:12:42.386Z,3.35
2023-06-04T04:13:47.198Z,3.85
2023-06-04T04:14:49.378Z,3.03
2023-06-04T04:15:53.694Z,3.20
2023-06-04T04:16:56.093Z,3.40
2023-06-04T04:17:58.313Z,3.40
2023-06-04T04:19:00.492Z,3.58
2023-06-04T04:20:05.171Z,3.90
2023-06-04T04:21:07.783Z,3.05
2023-06-04T04:22:12.170Z,3.55
2023-06-04T04:23:14.876Z,3.40
2023-06-04T04:24:27.331Z,3.70
2023-06-04T04:25:29.525Z,3.58
2023-06-04T04:26:32.182Z,3.58
2023-06-04T04:27:36.272Z,3.70
2023-06-04T04:28:38.617Z,4.22
2023-06-04T04:29:43.955Z,3.33
2023-06-04T04:30:46.181Z,3.05
2023-06-04T04:31:49.388Z,3.58
2023-06-04T04:32:51.377Z,3.67
2023-06-04T04:33:53.714Z,4.03
2023-06-04T04:34:56.353Z,3.58
2023-06-04T04:36:00.468Z,3.63
2023-06-04T04:37:04.196Z,3.70
2023-06-04T04:38:06.374Z,3.75
2023-06-04T04:39:08.461Z,3.38
2023-06-04T04:40:11.225Z,3.40
2023-06-04T04:41:13.556Z,3.47
2023-06-04T04:42:15.871Z,3.80
2023-06-04T04:43:17.957Z,3.10
2023-06-04T04:44:20.078Z,3.47
2023-06-04T04:45:22.238Z,3.33
2023-06-04T04:46:24.373Z,3.30
2023-06-04T04:47:26.395Z,3.67
2023-06-04T04:48:28.596Z,3.20
2023-06-04T04:49:30.707Z,2.78
2023-06-04T04:50:32.816Z,3.20
2023-06-04T04:51:34.789Z,3.63
2023-06-04T04:52:36.922Z,3.50
2023-06-04T04:53:38.930Z,3.53
2023-06-04T04:54:41.103Z,22.48
2023-06-04T04:55:43.155Z,4.38
2023-06-04T04:56:45.194Z,3.30
2023-06-04T04:57:47.182Z,3.50
2023-06-04T04:58:50.154Z,3.30
2023-06-04T04:59:52.362Z,3.45
2023-06-04T05:00:54.403Z,3.42
2023-06-04T05:01:56.587Z,3.17
2023-06-04T05:02:58.779Z,3.65
2023-06-04T05:04:02.967Z,3.40
2023-06-04T05:05:06.108Z,3.40
2023-06-04T05:06:08.170Z,3.75
2023-06-04T05:07:10.232Z,3.17
2023-06-04T05:08:12.796Z,3.38
2023-06-04T05:09:14.935Z,3.45
2023-06-04T05:10:17.063Z,4.10
2023-06-04T05:11:19.312Z,3.67
2023-06-04T05:12:21.586Z,3.25
2023-06-04T05:13:24.661Z,3.55
2023-06-04T05:14:26.646Z,3.42
2023-06-04T05:15:29.218Z,3.53
2023-06-04T05:16:31.254Z,3.28
2023-06-04T05:17:33.439Z,2.92
2023-06-04T05:18:35.988Z,3.67
2023-06-04T05:19:39.886Z,3.33
2023-06-04T05:20:42.023Z,3.40
2023-06-04T05:21:44.884Z,4.18
2023-06-04T05:22:46.936Z,3.80
2023-06-04T05:23:49.770Z,4.03
2023-06-04T05:24:52.845Z,4.07
2023-06-04T05:25:55.784Z,3.70
2023-06-04T05:26:58.548Z,3.72
2023-06-04T05:28:00.663Z,4.45
2023-06-04T05:29:02.849Z,3.75
2023-06-04T05:30:05.812Z,4.38
2023-06-04T05:31:10.157Z,4.13
2023-06-04T05:32:13.002Z,5.50
2023-06-04T05:33:21.775Z,5.07
2023-06-04T05:34:23.881Z,4.35
2023-06-04T05:35:26.090Z,3.50
2023-06-04T05:36:29.046Z,4.28
2023-06-04T05:37:31.331Z,3.88
2023-06-04T05:38:33.808Z,3.60
2023-06-04T05:39:37.053Z,4.18
2023-06-04T05:40:39.324Z,4.35
2023-06-04T05:42:00.290Z,3.88
2023-06-04T05:43:02.520Z,4.18
2023-06-04T05:44:05.528Z,3.70
2023-06-04T05:45:09.840Z,4.28
2023-06-04T05:46:12.404Z,4.15
2023-06-04T05:47:14.713Z,3.58
2023-06-04T05:48:17.106Z,4.40
2023-06-04T05:49:19.160Z,3.95
2023-06-04T05:50:21.186Z,4.15
2023-06-04T05:51:23.233Z,3.95
2023-06-04T05:52:25.485Z,4.30
2023-06-04T05:53:27.708Z,3.90
2023-06-04T05:54:31.294Z,4.18
2023-06-04T05:56:35.255Z,4.03
2023-06-04T05:57:37.706Z,4.30
2023-06-04T05:58:39.882Z,4.35
2023-06-04T05:59:41.984Z,4.47
2023-06-04T06:00:44.134Z,3.80
2023-06-04T06:01:46.250Z,4.43
2023-06-04T06:02:50.395Z,4.00
2023-06-04T06:03:52.918Z,4.10
2023-06-04T06:04:55.046Z,4.22
2023-06-04T06:05:58.392Z,4.03
2023-06-04T06:07:00.307Z,3.83
2023-06-04T06:08:03.175Z,4.38
2023-06-04T06:09:06.037Z,4.72
2023-06-04T06:10:08.557Z,3.95
2023-06-04T06:11:11.384Z,3.72
2023-06-04T06:12:14.133Z,4.00
2023-06-04T06:13:16.638Z,4.10
2023-06-04T06:14:18.995Z,4.60
2023-06-04T06:15:20.997Z,4.57
2023-06-04T06:16:23.380Z,4.45
2023-06-04T06:17:27.340Z,4.03
2023-06-04T06:18:29.580Z,4.05
2023-06-04T06:19:31.522Z,3.75
2023-06-04T06:20:33.646Z,3.63
2023-06-04T06:21:35.620Z,3.58
2023-06-04T06:22:37.788Z,3.55
2023-06-04T06:23:39.875Z,4.03
2023-06-04T06:24:41.999Z,3.72
2023-06-04T06:25:46.865Z,3.13
2023-06-04T06:26:49.044Z,3.42
2023-06-04T06:27:51.248Z,3.13
2023-06-04T06:28:53.426Z,2.88
2023-06-04T06:29:55.434Z,3.50
2023-06-04T06:30:57.538Z,3.30
2023-06-04T06:32:00.758Z,3.25
2023-06-04T06:33:02.918Z,3.40
2023-06-04T06:34:04.957Z,3.38
2023-06-04T06:35:08.969Z,3.33
2023-06-04T06:36:14.617Z,3.35
2023-06-04T06:37:16.757Z,3.05
2023-06-04T06:38:19.166Z,3.30
2023-06-04T06:39:21.635Z,3.08
2023-06-04T06:40:23.601Z,3.50
2023-06-04T06:41:27.148Z,2.47
2023-06-04T06:42:34.010Z,3.40
2023-06-04T06:43:36.192Z,3.15
2023-06-04T06:44:38.288Z,2.88
2023-06-04T06:45:40.389Z,2.70
2023-06-04T06:46:42.921Z,3.10
2023-06-04T06:47:45.141Z,2.65
2023-06-04T06:48:48.207Z,2.83
2023-06-04T06:49:50.216Z,2.78
2023-06-04T06:50:52.144Z,2.53
2023-06-04T06:51:54.443Z,2.90
2023-06-04T06:52:56.753Z,2.60
2023-06-04T06:53:58.870Z,3.55
2023-06-04T06:55:01.066Z,2.95
2023-06-04T06:56:04.243Z,2.90
2023-06-04T06:57:10.135Z,2.78
2023-06-04T06:58:12.797Z,3.05
2023-06-04T06:59:14.812Z,2.95
2023-06-04T07:00:17.975Z,2.92
2023-06-04T07:01:19.977Z,3.35
2023-06-04T07:02:22.394Z,2.60
2023-06-04T07:03:24.703Z,2.83
2023-06-04T07:04:27.294Z,3.10
2023-06-04T07:05:29.307Z,3.13
2023-06-04T07:06:31.467Z,2.90
2023-06-04T07:07:33.568Z,3.33
2023-06-04T07:08:36.535Z,3.38
2023-06-04T07:09:38.496Z,2.85
2023-06-04T07:10:40.818Z,2.83
2023-06-04T07:11:42.888Z,3.08
2023-06-04T07:12:45.023Z,2.95
2023-06-04T07:13:47.304Z,3.03
2023-06-04T07:14:49.512Z,3.55
2023-06-04T07:15:51.566Z,3.03
2023-06-04T07:16:53.877Z,2.83
2023-06-04T07:17:55.966Z,2.55
2023-06-04T07:18:58.262Z,3.10
2023-06-04T07:20:01.589Z,3.40
2023-06-04T07:21:05.182Z,2.85
2023-06-04T07:22:07.418Z,3.20
2023-06-04T07:23:09.546Z,3.17
2023-06-04T07:24:11.683Z,3.38
2023-06-04T07:25:13.996Z,3.13
2023-06-04T07:26:17.409Z,2.92
2023-06-04T07:27:21.074Z,3.17
2023-06-04T07:28:23.160Z,2.88
2023-06-04T07:29:25.238Z,3.25
2023-06-04T07:30:27.540Z,3.17
2023-06-04T07:31:29.679Z,3.90
2023-06-04T07:32:31.926Z,2.90
2023-06-04T07:33:34.128Z,3.13
2023-06-04T07:34:38.467Z,3.65
2023-06-04T07:35:40.883Z,3.78
2023-06-04T07:36:42.900Z,3.30
2023-06-04T07:37:50.222Z,3.17
2023-06-04T07:38:52.359Z,3.03
2023-06-04T07:39:54.422Z,2.75
2023-06-04T07:40:56.548Z,2.83
2023-06-04T07:41:58.726Z,3.22
2023-06-04T07:43:00.906Z,3.25
2023-06-04T07:44:02.979Z,2.90
2023-06-04T07:45:05.721Z,3.05
2023-06-04T07:46:08.589Z,3.35
2023-06-04T07:47:10.665Z,3.33
2023-06-04T07:48:13.008Z,3.22
2023-06-04T07:49:15.196Z,3.47
2023-06-04T07:50:17.454Z,3.03
2023-06-04T07:51:20.946Z,3.78
2023-06-04T07:52:23.023Z,2.83
2023-06-04T07:53:25.139Z,2.55
2023-06-04T07:54:27.633Z,2.20
2023-06-04T07:55:29.632Z,2.78
2023-06-04T07:56:31.874Z,2.38
2023-06-04T07:57:33.831Z,2.08
2023-06-04T07:58:36.204Z,1.90
2023-06-04T07:59:38.237Z,1.73
2023-06-04T08:00:40.425Z,2.05
2023-06-04T08:01:42.564Z,1.80
2023-06-04T08:02:44.890Z,1.65
2023-06-04T08:03:47.317Z,1.30
2023-06-04T08:04:49.623Z,1.80
2023-06-04T08:05:51.982Z,2.13
2023-06-04T08:06:54.293Z,1.92
2023-06-04T08:07:56.344Z,1.73
2023-06-04T08:08:58.510Z,1.60
2023-06-04T08:10:00.704Z,1.30
2023-06-04T08:11:03.869Z,1.40
2023-06-04T08:12:07.514Z,1.58
2023-06-04T08:13:11.176Z,1.45
2023-06-04T08:14:14.344Z,1.33
2023-06-04T08:15:16.986Z,1.13
2023-06-04T08:16:29.906Z,1.00
2023-06-04T08:17:44.151Z,0.80
2023-06-04T08:19:07.857Z,1.00
2023-06-04T08:20:18.992Z,1.15
2023-06-04T08:21:34.894Z,0.90
2023-06-04T08:22:43.217Z,0.90
2023-06-04T08:23:49.640Z,0.68
2023-06-04T08:25:11.692Z,0.90
2023-06-04T08:26:35.146Z,0.75
2023-06-04T08:27:57.495Z,0.80
2023-06-04T08:29:19.842Z,0.90
2023-06-04T08:30:22.493Z,0.90
2023-06-04T08:31:43.603Z,0.80
2023-06-04T08:32:56.845Z,1.08
2023-06-04T08:34:06.641Z,1.08
2023-06-04T08:35:23.701Z,0.80
2023-06-04T08:36:26.059Z,0.90
2023-06-04T08:37:28.128Z,0.82
2023-06-04T08:38:30.218Z,0.88
2023-06-04T08:39:32.646Z,0.75
2023-06-04T08:40:36.112Z,0.95
2023-06-04T08:41:46.245Z,1.13
2023-06-04T08:42:49.806Z,1.20
2023-06-04T08:43:52.497Z,0.93
2023-06-04T08:44:54.653Z,0.90
2023-06-04T08:46:03.119Z,1.00
2023-06-04T08:47:09.969Z,0.77
2023-06-04T08:48:14.686Z,0.90
2023-06-04T08:49:18.090Z,0.70
2023-06-04T08:50:23.833Z,0.60
2023-06-04T08:51:26.200Z,0.73
2023-06-04T08:52:28.916Z,0.80
2023-06-04T08:53:31.868Z,0.93
2023-06-04T08:54:34.905Z,0.70
2023-06-04T08:55:37.019Z,0.60
2023-06-04T08:56:39.261Z,0.70
2023-06-04T08:57:42.146Z,0.70
2023-06-04T08:58:45.761Z,0.70
2023-06-04T08:59:48.815Z,0.80
2023-06-04T09:00:51.805Z,0.90
2023-06-04T09:01:56.199Z,0.75
2023-06-04T09:02:59.409Z,0.70
2023-06-04T09:04:05.359Z,0.98
2023-06-04T09:05:10.511Z,1.00
2023-06-04T09:06:13.207Z,1.00
2023-06-04T09:07:16.105Z,0.90
2023-06-04T09:08:20.004Z,0.90
2023-06-04T09:09:24.960Z,0.95
2023-06-04T09:10:27.981Z,1.17
2023-06-04T09:11:40.700Z,1.00
2023-06-04T09:12:45.727Z,1.13
2023-06-04T09:13:49.169Z,0.90
2023-06-04T09:14:53.940Z,0.90
2023-06-04T09:16:04.078Z,1.27
2023-06-04T09:17:06.631Z,1.20
2023-06-04T09:18:08.782Z,1.50
2023-06-04T09:19:10.933Z,1.00
2023-06-04T09:20:23.369Z,1.20
2023-06-04T09:21:25.878Z,1.38
2023-06-04T09:22:35.502Z,1.23
2023-06-04T09:23:49.946Z,1.20
2023-06-04T09:24:54.113Z,1.30
2023-06-04T09:25:56.128Z,1.20
2023-06-04T09:26:58.272Z,1.20
2023-06-04T09:28:08.225Z,1.35
2023-06-04T09:29:10.589Z,0.95
2023-06-04T09:30:12.671Z,0.90
2023-06-04T09:31:18.114Z,1.10
2023-06-04T09:32:31.904Z,0.88
2023-06-04T09:34:20.602Z,1.10
2023-06-04T09:35:22.611Z,1.00
2023-06-04T09:36:31.583Z,0.88
2023-06-04T09:37:33.664Z,0.80
2023-06-04T09:38:36.792Z,1.10
2023-06-04T09:39:38.851Z,1.08
2023-06-04T09:40:41.155Z,1.05
2023-06-04T09:41:43.484Z,0.95
2023-06-04T09:42:47.045Z,1.05
2023-06-04T09:43:49.459Z,0.80
2023-06-04T09:44:51.930Z,1.02
2023-06-04T09:45:54.281Z,1.25
2023-06-04T09:46:58.031Z,1.20
2023-06-04T09:49:06.901Z,0.70
2023-06-04T09:50:09.977Z,0.82
2023-06-04T09:51:16.918Z,1.10
2023-06-04T09:52:38.939Z,0.80
2023-06-04T09:53:41.044Z,1.05
2023-06-04T09:54:43.679Z,1.00
2023-06-04T09:55:45.781Z,0.73
2023-06-04T09:56:48.164Z,0.70
2023-06-04T09:57:51.564Z,1.15
2023-06-04T09:59:04.213Z,0.57
2023-06-04T10:00:10.677Z,0.80
2023-06-04T10:01:13.050Z,0.80
2023-06-04T10:02:19.916Z,0.70
2023-06-04T10:04:01.737Z,0.40
2023-06-04T10:05:04.911Z,0.47
2023-06-04T10:06:26.485Z,0.50
2023-06-04T10:07:47.119Z,0.50
2023-06-04T10:08:53.936Z,0.70
2023-06-04T10:09:57.285Z,0.70
2023-06-04T10:11:04.282Z,0.80
2023-06-04T10:12:06.737Z,0.90
2023-06-04T10:13:24.593Z,0.50
2023-06-04T10:14:40.273Z,0.63
2023-06-04T10:16:01.367Z,0.70
2023-06-04T10:17:40.934Z,0.50
2023-06-04T10:18:44.921Z,0.60
2023-06-04T10:20:07.011Z,0.70
2023-06-04T10:21:10.473Z,0.75
2023-06-04T10:22:31.144Z,0.65
2023-06-04T10:23:33.609Z,0.68
2023-06-04T10:24:35.817Z,0.70
2023-06-04T10:25:38.360Z,0.95
2023-06-04T10:26:45.054Z,0.70
2023-06-04T10:27:48.026Z,0.65
2023-06-04T10:28:50.820Z,0.75
2023-06-04T10:29:54.251Z,0.73
2023-06-04T10:30:56.334Z,0.82
2023-06-04T10:31:58.596Z,0.68
2023-06-04T10:33:01.355Z,0.70
2023-06-04T10:34:04.429Z,0.73
2023-06-04T10:35:09.367Z,0.50
2023-06-04T10:36:20.064Z,0.63
2023-06-04T10:37:27.212Z,0.77
2023-06-04T10:38:47.732Z,0.68
2023-06-04T10:39:57.473Z,0.50
2023-06-04T10:41:00.015Z,0.32
2023-06-04T10:42:06.876Z,0.55
2023-06-04T10:43:13.602Z,0.65
2023-06-04T10:44:15.701Z,0.65
2023-06-04T10:45:17.939Z,0.60
2023-06-04T10:46:21.385Z,1.10
2023-06-04T10:47:24.981Z,0.60
2023-06-04T10:48:27.138Z,0.40
2023-06-04T10:49:48.709Z,0.82
2023-06-04T10:50:54.586Z,0.95
2023-06-04T10:52:04.553Z,0.98
2023-06-04T10:53:06.845Z,0.70
2023-06-04T10:54:09.092Z,0.77
2023-06-04T10:55:30.346Z,0.60
2023-06-04T10:56:35.146Z,0.93
2023-06-04T10:57:37.899Z,0.60
2023-06-04T10:58:40.188Z,0.57
2023-06-04T10:59:42.876Z,0.68
2023-06-04T11:00:51.140Z,0.75
2023-06-04T11:01:53.468Z,0.50
2023-06-04T11:02:59.095Z,0.68
2023-06-04T11:04:01.929Z,0.73
2023-06-04T11:05:23.712Z,0.80
2023-06-04T11:06:29.216Z,0.50
2023-06-04T11:07:46.363Z,0.60
2023-06-04T11:08:48.729Z,0.75
2023-06-04T11:10:10.943Z,0.60
2023-06-04T11:11:14.895Z,0.35
2023-06-04T11:12:17.296Z,0.60
2023-06-04T11:13:26.033Z,0.68
2023-06-04T11:14:28.384Z,0.60
2023-06-04T11:15:45.807Z,0.57
2023-06-04T11:17:06.678Z,0.50
2023-06-04T11:18:08.830Z,0.40
2023-06-04T11:19:11.000Z,0.80
2023-06-04T11:20:20.884Z,0.73
2023-06-04T11:21:24.525Z,0.60
2023-06-04T11:22:27.911Z,0.70
2023-06-04T11:23:30.191Z,1.13
2023-06-04T11:24:52.676Z,0.75
2023-06-04T11:25:56.014Z,0.80
2023-06-04T11:28:09.281Z,1.40
2023-06-04T11:29:13.204Z,0.98
2023-06-04T11:30:16.014Z,1.20
2023-06-04T11:31:18.167Z,0.55
2023-06-04T11:32:58.454Z,0.80
2023-06-04T11:34:00.427Z,1.20
2023-06-04T11:35:09.642Z,0.93
2023-06-04T11:36:23.245Z,1.02
2023-06-04T11:37:25.622Z,1.10
2023-06-04T11:38:27.694Z,1.02
2023-06-04T11:39:48.493Z,0.60
2023-06-04T11:41:06.413Z,0.75
2023-06-04T11:42:09.124Z,0.60
2023-06-04T11:43:30.744Z,1.23
2023-06-04T11:44:33.093Z,1.25
2023-06-04T11:45:35.243Z,1.10
2023-06-04T11:46:46.841Z,1.00
2023-06-04T11:47:50.885Z,0.93
2023-06-04T11:48:54.290Z,1.15
2023-06-04T11:50:00.712Z,0.85
2023-06-04T11:51:08.864Z,0.80
2023-06-04T11:52:29.232Z,0.80
2023-06-04T11:53:31.794Z,0.73
2023-06-04T11:54:38.213Z,1.10
2023-06-04T11:55:41.500Z,0.80
2023-06-04T11:56:47.343Z,0.75
2023-06-04T11:57:52.902Z,0.70
2023-06-04T11:58:58.913Z,0.60
2023-06-04T12:00:01.444Z,0.90
2023-06-04T12:01:04.816Z,0.70
2023-06-04T12:02:08.616Z,1.13
2023-06-04T12:03:10.822Z,0.90
2023-06-04T12:04:20.301Z,0.80
2023-06-04T12:05:24.668Z,1.00
2023-06-04T12:06:26.927Z,0.65
2023-06-04T12:07:28.906Z,0.90
2023-06-04T12:08:31.139Z,0.80
2023-06-04T12:09:39.512Z,0.90
2023-06-04T12:10:43.627Z,0.70
2023-06-04T12:12:56.302Z,1.48
2023-06-04T12:15:01.753Z,0.65
2023-06-04T12:16:08.193Z,0.80
2023-06-04T12:17:10.676Z,0.80
2023-06-04T12:18:12.819Z,0.80
2023-06-04T12:19:15.038Z,0.80
2023-06-04T12:20:17.237Z,0.88
2023-06-04T12:21:42.158Z,0.82
2023-06-04T12:22:48.678Z,0.77
2023-06-04T12:23:51.471Z,0.70
2023-06-04T12:24:58.814Z,0.50
2023-06-04T12:26:19.366Z,0.70
2023-06-04T12:27:24.257Z,0.63
2023-06-04T12:28:26.234Z,1.30
2023-06-04T12:29:28.356Z,0.68
2023-06-04T12:30:42.322Z,1.20
2023-06-04T12:31:46.943Z,0.70
2023-06-04T12:32:49.929Z,0.90
2023-06-04T12:34:10.935Z,0.80
2023-06-04T12:35:12.937Z,0.82
2023-06-04T12:36:14.988Z,1.40
2023-06-04T12:37:54.424Z,0.93
2023-06-04T12:39:34.298Z,0.90
2023-06-04T12:40:36.390Z,0.85
2023-06-04T12:41:39.084Z,0.90
2023-06-04T12:42:41.456Z,0.75
2023-06-04T12:43:45.707Z,0.50
2023-06-04T12:44:47.877Z,0.85
2023-06-04T12:45:50.017Z,0.70
2023-06-04T12:46:52.419Z,1.20
2023-06-04T12:47:54.660Z,1.00
2023-06-04T12:48:56.741Z,0.80
2023-06-04T12:49:59.644Z,0.88
2023-06-04T12:51:01.698Z,0.95
2023-06-04T12:52:04.454Z,1.05
2023-06-04T12:53:06.482Z,0.73
2023-06-04T12:54:08.664Z,0.90
2023-06-04T12:55:11.026Z,1.00
2023-06-04T12:56:13.174Z,0.80
2023-06-04T12:57:15.313Z,0.80
2023-06-04T12:58:18.460Z,0.95
2023-06-04T12:59:20.536Z,0.90
2023-06-04T13:00:22.564Z,1.02
2023-06-04T13:01:26.674Z,1.70
2023-06-04T13:02:30.448Z,1.75
2023-06-04T13:03:33.227Z,1.90
2023-06-04T13:04:35.629Z,2.33
2023-06-04T13:05:38.044Z,2.85
2023-06-04T13:06:40.212Z,3.72
2023-06-04T13:07:42.197Z,2.30
2023-06-04T13:08:44.696Z,2.25
2023-06-04T13:09:46.731Z,1.90
2023-06-04T13:10:49.318Z,1.88
2023-06-04T13:11:52.292Z,1.33
2023-06-04T13:12:54.452Z,1.00
2023-06-04T13:13:56.561Z,1.10
2023-06-04T13:14:58.652Z,1.92
2023-06-04T13:16:00.754Z,1.40
2023-06-04T13:17:14.032Z,2.13
2023-06-04T13:18:24.002Z,1.00
2023-06-04T13:19:27.815Z,1.70
2023-06-04T13:21:31.890Z,1.33
2023-06-04T13:22:34.173Z,1.00
2023-06-04T13:23:49.679Z,1.25
2023-06-04T13:24:52.878Z,0.90
2023-06-04T13:25:54.928Z,1.10
2023-06-04T13:26:57.216Z,0.70
2023-06-04T13:27:59.749Z,1.02
2023-06-04T13:29:01.754Z,0.80
2023-06-04T13:30:04.190Z,0.65
2023-06-04T13:31:07.938Z,0.70
2023-06-04T13:32:12.024Z,0.88
2023-06-04T13:33:14.484Z,1.02
2023-06-04T13:35:25.446Z,1.10
2023-06-04T13:36:27.495Z,0.75
2023-06-04T13:37:30.053Z,0.93
2023-06-04T13:38:32.948Z,0.90
2023-06-04T13:39:35.250Z,1.00
2023-06-04T13:40:37.316Z,2.00
2023-06-04T13:41:39.975Z,1.63
2023-06-04T13:42:44.187Z,2.67
2023-06-04T13:43:46.401Z,1.40
2023-06-04T13:44:48.373Z,1.17
2023-06-04T13:45:50.527Z,1.02
2023-06-04T13:46:52.708Z,2.30
2023-06-04T13:47:55.458Z,4.07
2023-06-04T13:48:57.993Z,3.20
2023-06-04T13:50:00.333Z,2.53
2023-06-04T13:51:02.421Z,1.75
2023-06-04T13:52:04.637Z,1.45
2023-06-04T13:53:06.718Z,1.00
2023-06-04T13:54:10.717Z,1.20
2023-06-04T13:55:14.954Z,0.90
2023-06-04T13:56:17.185Z,1.60
2023-06-04T13:57:19.202Z,1.55
2023-06-04T13:58:21.553Z,1.90
2023-06-04T13:59:23.681Z,1.38
2023-06-04T14:00:25.934Z,1.73
2023-06-04T14:01:28.048Z,0.93
2023-06-04T14:02:30.265Z,1.10
2023-06-04T14:03:32.623Z,1.25
2023-06-04T14:04:34.964Z,1.30
2023-06-04T14:05:37.082Z,0.90
2023-06-04T14:06:39.208Z,0.88
2023-06-04T14:07:44.143Z,0.90
2023-06-04T14:08:46.360Z,0.85
2023-06-04T14:09:50.029Z,1.00
2023-06-04T14:10:53.341Z,0.70
2023-06-04T14:11:55.869Z,1.50
2023-06-04T14:12:57.929Z,1.40
2023-06-04T14:14:00.223Z,2.15
2023-06-04T14:15:02.943Z,1.90
2023-06-04T14:16:05.631Z,1.33
2023-06-04T14:17:07.970Z,2.70
2023-06-04T14:18:10.091Z,2.83
2023-06-04T14:19:12.823Z,1.77
2023-06-04T14:20:15.068Z,1.70
2023-06-04T14:21:17.150Z,1.38
2023-06-04T14:22:19.259Z,1.92
2023-06-04T14:23:21.502Z,2.00
2023-06-04T14:24:24.027Z,2.75
2023-06-04T14:25:26.244Z,2.47
2023-06-04T14:26:28.327Z,1.15
2023-06-04T14:27:30.569Z,2.33
2023-06-04T14:28:33.071Z,1.00
2023-06-04T14:29:39.221Z,0.90
2023-06-04T14:30:43.346Z,1.90